sensor_id;sensor_type;location;lat;lon;timestamp;P1;durP1;ratioP1;P2;durP2;ratioP2
43457;SDS011;29046;54.184;18.680;2023-05-10T00:01:01;9.65;;;4.53;;
43457;SDS011;29046;54.184;18.680;2023-05-10T00:03:29;6.88;;;3.83;;
43457;SDS011;29046;54.184;18.680;2023-05-10T00:05:56;10.23;;;4.60;;
43457;SDS011;29046;54.184;18.680;2023-05-10T00:08:24;7.65;;;3.97;;
43457;SDS011;29046;54.184;18.680;2023-05-10T00:10:51;9.00;;;4.40;;
43457;SDS011;29046;54.184;18.680;2023-05-10T00:13:19;9.98;;;3.78;;
43457;SDS011;29046;54.184;18.680;2023-05-10T00:15:46;11.63;;;4.00;;
43457;SDS011;29046;54.184;18.680;2023-05-10T00:18:14;14.70;;;5.45;;
43457;SDS011;29046;54.184;18.680;2023-05-10T00:20:41;8.77;;;4.40;;
43457;SDS011;29046;54.184;18.680;2023-05-10T00:23:09;11.50;;;4.20;;
43457;SDS011;29046;54.184;18.680;2023-05-10T00:25:36;11.55;;;4.53;;
43457;SDS011;29046;54.184;18.680;2023-05-10T00:28:04;18.95;;;4.10;;
43457;SDS011;29046;54.184;18.680;2023-05-10T00:30:31;8.40;;;4.38;;
43457;SDS011;29046;54.184;18.680;2023-05-10T00:32:59;7.43;;;4.05;;
43457;SDS011;29046;54.184;18.680;2023-05-10T00:35:27;10.65;;;5.28;;
43457;SDS011;29046;54.184;18.680;2023-05-10T00:37:54;20.15;;;7.25;;
43457;SDS011;29046;54.184;18.680;2023-05-10T00:40:22;16.13;;;6.78;;
43457;SDS011;29046;54.184;18.680;2023-05-10T00:42:49;14.68;;;5.82;;
43457;SDS011;29046;54.184;18.680;2023-05-10T00:45:17;11.05;;;5.13;;
43457;SDS011;29046;54.184;18.680;2023-05-10T00:47:44;12.25;;;5.43;;
43457;SDS011;29046;54.184;18.680;2023-05-10T00:50:12;13.95;;;5.30;;
43457;SDS011;29046;54.184;18.680;2023-05-10T00:52:41;7.25;;;3.70;;
43457;SDS011;29046;54.184;18.680;2023-05-10T00:55:09;6.60;;;3.70;;
43457;SDS011;29046;54.184;18.680;2023-05-10T00:57:38;11.50;;;4.15;;
43457;SDS011;29046;54.184;18.680;2023-05-10T01:00:07;6.95;;;4.28;;
43457;SDS011;29046;54.184;18.680;2023-05-10T01:02:34;7.38;;;4.20;;
43457;SDS011;29046;54.184;18.680;2023-05-10T01:05:02;9.65;;;4.10;;
43457;SDS011;29046;54.184;18.680;2023-05-10T01:07:30;6.03;;;3.40;;
43457;SDS011;29046;54.184;18.680;2023-05-10T01:09:57;7.82;;;3.55;;
43457;SDS011;29046;54.184;18.680;2023-05-10T01:12:25;7.00;;;3.15;;
43457;SDS011;29046;54.184;18.680;2023-05-10T01:14:53;6.25;;;3.42;;
43457;SDS011;29046;54.184;18.680;2023-05-10T01:17:21;6.90;;;3.33;;
43457;SDS011;29046;54.184;18.680;2023-05-10T01:19:49;9.50;;;3.85;;
43457;SDS011;29046;54.184;18.680;2023-05-10T01:38:08;16.50;;;5.72;;
43457;SDS011;29046;54.184;18.680;2023-05-10T01:43:10;10.88;;;4.10;;
43457;SDS011;29046;54.184;18.680;2023-05-10T01:45:56;10.45;;;4.25;;
43457;SDS011;29046;54.184;18.680;2023-05-10T01:48:27;8.05;;;3.40;;
43457;SDS011;29046;54.184;18.680;2023-05-10T01:50:55;7.35;;;3.75;;
43457;SDS011;29046;54.184;18.680;2023-05-10T01:53:23;9.40;;;3.90;;
43457;SDS011;29046;54.184;18.680;2023-05-10T01:55:52;8.77;;;3.38;;
43457;SDS011;29046;54.184;18.680;2023-05-10T01:58:23;12.50;;;4.43;;
43457;SDS011;29046;54.184;18.680;2023-05-10T02:00:51;12.85;;;3.97;;
43457;SDS011;29046;54.184;18.680;2023-05-10T02:03:20;7.78;;;3.95;;
43457;SDS011;29046;54.184;18.680;2023-05-10T02:05:49;13.23;;;4.65;;
43457;SDS011;29046;54.184;18.680;2023-05-10T02:08:17;5.53;;;3.30;;
43457;SDS011;29046;54.184;18.680;2023-05-10T02:10:46;7.45;;;3.67;;
43457;SDS011;29046;54.184;18.680;2023-05-10T02:13:14;8.32;;;3.92;;
43457;SDS011;29046;54.184;18.680;2023-05-10T02:15:42;13.27;;;3.50;;
43457;SDS011;29046;54.184;18.680;2023-05-10T02:18:10;10.55;;;4.43;;
43457;SDS011;29046;54.184;18.680;2023-05-10T02:20:38;13.63;;;6.78;;
43457;SDS011;29046;54.184;18.680;2023-05-10T02:23:06;30.48;;;8.52;;
43457;SDS011;29046;54.184;18.680;2023-05-10T02:25:34;17.00;;;6.20;;
43457;SDS011;29046;54.184;18.680;2023-05-10T02:28:03;11.80;;;5.05;;
43457;SDS011;29046;54.184;18.680;2023-05-10T02:30:32;6.78;;;3.70;;
43457;SDS011;29046;54.184;18.680;2023-05-10T02:33:00;8.32;;;4.18;;
43457;SDS011;29046;54.184;18.680;2023-05-10T02:35:28;7.88;;;3.95;;
43457;SDS011;29046;54.184;18.680;2023-05-10T02:37:56;10.60;;;3.90;;
43457;SDS011;29046;54.184;18.680;2023-05-10T02:40:25;15.00;;;5.70;;
43457;SDS011;29046;54.184;18.680;2023-05-10T02:42:55;8.57;;;4.55;;
43457;SDS011;29046;54.184;18.680;2023-05-10T02:45:25;14.57;;;4.93;;
43457;SDS011;29046;54.184;18.680;2023-05-10T02:47:54;8.27;;;4.85;;
43457;SDS011;29046;54.184;18.680;2023-05-10T02:50:22;12.05;;;5.80;;
43457;SDS011;29046;54.184;18.680;2023-05-10T02:52:54;14.82;;;6.68;;
43457;SDS011;29046;54.184;18.680;2023-05-10T02:55:25;18.58;;;6.93;;
43457;SDS011;29046;54.184;18.680;2023-05-10T02:57:55;12.75;;;6.53;;
43457;SDS011;29046;54.184;18.680;2023-05-10T03:00:25;15.80;;;6.50;;
43457;SDS011;29046;54.184;18.680;2023-05-10T03:02:53;11.20;;;7.07;;
43457;SDS011;29046;54.184;18.680;2023-05-10T03:05:21;15.13;;;6.47;;
43457;SDS011;29046;54.184;18.680;2023-05-10T03:07:48;11.63;;;5.90;;
43457;SDS011;29046;54.184;18.680;2023-05-10T03:10:16;11.57;;;6.05;;
43457;SDS011;29046;54.184;18.680;2023-05-10T03:18:01;22.67;;;8.65;;
43457;SDS011;29046;54.184;18.680;2023-05-10T03:20:36;15.00;;;9.23;;
43457;SDS011;29046;54.184;18.680;2023-05-10T03:23:07;16.85;;;8.25;;
43457;SDS011;29046;54.184;18.680;2023-05-10T03:25:38;17.67;;;6.20;;
43457;SDS011;29046;54.184;18.680;2023-05-10T03:28:06;13.27;;;6.45;;
43457;SDS011;29046;54.184;18.680;2023-05-10T03:30:34;11.25;;;5.75;;
43457;SDS011;29046;54.184;18.680;2023-05-10T03:33:06;17.42;;;6.70;;
43457;SDS011;29046;54.184;18.680;2023-05-10T03:35:34;12.15;;;5.00;;
43457;SDS011;29046;54.184;18.680;2023-05-10T03:38:01;13.20;;;5.13;;
43457;SDS011;29046;54.184;18.680;2023-05-10T03:40:29;12.15;;;5.20;;
43457;SDS011;29046;54.184;18.680;2023-05-10T03:42:58;16.85;;;5.50;;
43457;SDS011;29046;54.184;18.680;2023-05-10T03:45:26;12.77;;;4.85;;
43457;SDS011;29046;54.184;18.680;2023-05-10T03:47:54;13.40;;;5.75;;
43457;SDS011;29046;54.184;18.680;2023-05-10T03:50:22;7.90;;;5.22;;
43457;SDS011;29046;54.184;18.680;2023-05-10T03:52:49;10.70;;;5.72;;
43457;SDS011;29046;54.184;18.680;2023-05-10T03:55:19;10.82;;;5.00;;
43457;SDS011;29046;54.184;18.680;2023-05-10T03:57:47;13.15;;;5.47;;
43457;SDS011;29046;54.184;18.680;2023-05-10T04:00:16;14.68;;;6.13;;
43457;SDS011;29046;54.184;18.680;2023-05-10T04:02:44;17.02;;;6.30;;
43457;SDS011;29046;54.184;18.680;2023-05-10T04:05:12;10.05;;;5.28;;
43457;SDS011;29046;54.184;18.680;2023-05-10T04:07:39;14.82;;;5.97;;
43457;SDS011;29046;54.184;18.680;2023-05-10T04:10:07;14.50;;;5.30;;
43457;SDS011;29046;54.184;18.680;2023-05-10T04:12:35;13.57;;;5.85;;
43457;SDS011;29046;54.184;18.680;2023-05-10T04:15:02;11.77;;;5.82;;
43457;SDS011;29046;54.184;18.680;2023-05-10T04:17:30;13.88;;;5.72;;
43457;SDS011;29046;54.184;18.680;2023-05-10T04:19:58;14.05;;;5.35;;
43457;SDS011;29046;54.184;18.680;2023-05-10T04:22:25;21.67;;;5.63;;
43457;SDS011;29046;54.184;18.680;2023-05-10T04:24:54;14.40;;;6.20;;
43457;SDS011;29046;54.184;18.680;2023-05-10T04:27:22;20.00;;;6.00;;
43457;SDS011;29046;54.184;18.680;2023-05-10T04:29:49;16.63;;;5.32;;
43457;SDS011;29046;54.184;18.680;2023-05-10T04:32:17;19.10;;;5.35;;
43457;SDS011;29046;54.184;18.680;2023-05-10T04:34:45;24.70;;;5.60;;
43457;SDS011;29046;54.184;18.680;2023-05-10T04:37:12;18.48;;;6.28;;
43457;SDS011;29046;54.184;18.680;2023-05-10T04:39:40;25.05;;;9.02;;
43457;SDS011;29046;54.184;18.680;2023-05-10T04:42:08;38.63;;;15.38;;
43457;SDS011;29046;54.184;18.680;2023-05-10T04:44:35;30.70;;;11.43;;
43457;SDS011;29046;54.184;18.680;2023-05-10T04:47:03;25.30;;;7.47;;
43457;SDS011;29046;54.184;18.680;2023-05-10T04:49:31;31.90;;;6.25;;
43457;SDS011;29046;54.184;18.680;2023-05-10T04:51:58;15.38;;;5.45;;
43457;SDS011;29046;54.184;18.680;2023-05-10T04:54:26;21.15;;;4.78;;
43457;SDS011;29046;54.184;18.680;2023-05-10T04:56:53;8.27;;;3.95;;
43457;SDS011;29046;54.184;18.680;2023-05-10T04:59:21;14.60;;;4.28;;
43457;SDS011;29046;54.184;18.680;2023-05-10T05:01:49;11.15;;;3.97;;
43457;SDS011;29046;54.184;18.680;2023-05-10T05:04:16;7.90;;;3.70;;
43457;SDS011;29046;54.184;18.680;2023-05-10T05:06:44;8.80;;;4.40;;
43457;SDS011;29046;54.184;18.680;2023-05-10T05:09:13;8.82;;;3.50;;
43457;SDS011;29046;54.184;18.680;2023-05-10T05:11:40;10.10;;;4.20;;
43457;SDS011;29046;54.184;18.680;2023-05-10T05:14:08;16.05;;;4.57;;
43457;SDS011;29046;54.184;18.680;2023-05-10T05:16:35;12.27;;;4.03;;
43457;SDS011;29046;54.184;18.680;2023-05-10T05:19:03;7.97;;;3.97;;
43457;SDS011;29046;54.184;18.680;2023-05-10T05:21:31;6.50;;;4.45;;
43457;SDS011;29046;54.184;18.680;2023-05-10T05:23:59;6.75;;;3.97;;
43457;SDS011;29046;54.184;18.680;2023-05-10T05:26:27;8.05;;;4.13;;
43457;SDS011;29046;54.184;18.680;2023-05-10T05:28:55;7.00;;;4.07;;
43457;SDS011;29046;54.184;18.680;2023-05-10T05:31:23;12.25;;;4.35;;
43457;SDS011;29046;54.184;18.680;2023-05-10T05:33:51;11.43;;;4.47;;
43457;SDS011;29046;54.184;18.680;2023-05-10T05:36:18;8.85;;;4.07;;
43457;SDS011;29046;54.184;18.680;2023-05-10T05:38:46;7.03;;;4.22;;
43457;SDS011;29046;54.184;18.680;2023-05-10T05:41:14;11.07;;;4.80;;
43457;SDS011;29046;54.184;18.680;2023-05-10T05:43:41;6.22;;;4.07;;
43457;SDS011;29046;54.184;18.680;2023-05-10T05:46:09;7.28;;;3.67;;
43457;SDS011;29046;54.184;18.680;2023-05-10T05:48:37;5.03;;;3.28;;
43457;SDS011;29046;54.184;18.680;2023-05-10T05:51:05;7.32;;;3.58;;
43457;SDS011;29046;54.184;18.680;2023-05-10T05:53:33;11.73;;;4.55;;
43457;SDS011;29046;54.184;18.680;2023-05-10T05:56:01;9.23;;;3.92;;
43457;SDS011;29046;54.184;18.680;2023-05-10T05:58:30;8.98;;;4.00;;
43457;SDS011;29046;54.184;18.680;2023-05-10T06:00:58;8.52;;;4.50;;
43457;SDS011;29046;54.184;18.680;2023-05-10T06:03:25;7.25;;;3.65;;
43457;SDS011;29046;54.184;18.680;2023-05-10T06:05:53;7.47;;;3.30;;
43457;SDS011;29046;54.184;18.680;2023-05-10T06:08:20;9.68;;;3.97;;
43457;SDS011;29046;54.184;18.680;2023-05-10T06:10:49;8.90;;;3.88;;
43457;SDS011;29046;54.184;18.680;2023-05-10T06:13:16;10.07;;;3.40;;
43457;SDS011;29046;54.184;18.680;2023-05-10T06:15:44;5.75;;;3.20;;
43457;SDS011;29046;54.184;18.680;2023-05-10T06:18:12;9.45;;;4.00;;
43457;SDS011;29046;54.184;18.680;2023-05-10T06:20:40;5.78;;;3.17;;
43457;SDS011;29046;54.184;18.680;2023-05-10T06:23:09;5.45;;;3.35;;
43457;SDS011;29046;54.184;18.680;2023-05-10T06:25:37;6.45;;;3.40;;
43457;SDS011;29046;54.184;18.680;2023-05-10T06:28:04;7.97;;;3.25;;
43457;SDS011;29046;54.184;18.680;2023-05-10T06:30:32;6.55;;;3.25;;
43457;SDS011;29046;54.184;18.680;2023-05-10T06:33:00;7.90;;;3.22;;
43457;SDS011;29046;54.184;18.680;2023-05-10T06:35:28;7.97;;;3.50;;
43457;SDS011;29046;54.184;18.680;2023-05-10T06:37:55;4.57;;;2.95;;
43457;SDS011;29046;54.184;18.680;2023-05-10T06:40:23;6.60;;;3.08;;
43457;SDS011;29046;54.184;18.680;2023-05-10T06:42:51;11.55;;;3.80;;
43457;SDS011;29046;54.184;18.680;2023-05-10T06:45:18;5.32;;;3.28;;
43457;SDS011;29046;54.184;18.680;2023-05-10T06:47:46;5.55;;;3.10;;
43457;SDS011;29046;54.184;18.680;2023-05-10T06:50:14;11.90;;;3.97;;
43457;SDS011;29046;54.184;18.680;2023-05-10T06:52:41;5.43;;;3.45;;
43457;SDS011;29046;54.184;18.680;2023-05-10T06:55:10;8.65;;;3.53;;
43457;SDS011;29046;54.184;18.680;2023-05-10T06:57:37;6.30;;;3.80;;
43457;SDS011;29046;54.184;18.680;2023-05-10T07:00:05;6.57;;;3.55;;
43457;SDS011;29046;54.184;18.680;2023-05-10T07:02:33;8.15;;;3.90;;
43457;SDS011;29046;54.184;18.680;2023-05-10T07:05:01;3.97;;;2.35;;
43457;SDS011;29046;54.184;18.680;2023-05-10T07:07:29;5.07;;;2.45;;
43457;SDS011;29046;54.184;18.680;2023-05-10T07:09:57;11.23;;;2.63;;
43457;SDS011;29046;54.184;18.680;2023-05-10T07:12:24;6.35;;;2.85;;
43457;SDS011;29046;54.184;18.680;2023-05-10T07:14:52;8.20;;;2.83;;
43457;SDS011;29046;54.184;18.680;2023-05-10T07:17:20;5.25;;;2.88;;
43457;SDS011;29046;54.184;18.680;2023-05-10T07:19:48;6.82;;;2.78;;
43457;SDS011;29046;54.184;18.680;2023-05-10T07:22:15;6.10;;;3.13;;
43457;SDS011;29046;54.184;18.680;2023-05-10T07:24:46;6.90;;;3.20;;
43457;SDS011;29046;54.184;18.680;2023-05-10T07:27:13;6.07;;;3.15;;
43457;SDS011;29046;54.184;18.680;2023-05-10T07:29:41;3.70;;;2.72;;
43457;SDS011;29046;54.184;18.680;2023-05-10T07:32:08;10.95;;;3.03;;
43457;SDS011;29046;54.184;18.680;2023-05-10T07:34:36;3.92;;;2.88;;
43457;SDS011;29046;54.184;18.680;2023-05-10T07:37:04;7.30;;;2.92;;
43457;SDS011;29046;54.184;18.680;2023-05-10T07:39:32;5.88;;;2.67;;
43457;SDS011;29046;54.184;18.680;2023-05-10T07:42:00;6.50;;;3.03;;
43457;SDS011;29046;54.184;18.680;2023-05-10T07:44:29;7.47;;;2.30;;
43457;SDS011;29046;54.184;18.680;2023-05-10T07:46:57;7.90;;;2.60;;
43457;SDS011;29046;54.184;18.680;2023-05-10T07:49:25;4.78;;;2.67;;
43457;SDS011;29046;54.184;18.680;2023-05-10T07:51:53;6.97;;;2.65;;
43457;SDS011;29046;54.184;18.680;2023-05-10T07:54:20;9.45;;;2.40;;
43457;SDS011;29046;54.184;18.680;2023-05-10T07:56:48;7.50;;;3.00;;
43457;SDS011;29046;54.184;18.680;2023-05-10T07:59:16;7.45;;;2.25;;
43457;SDS011;29046;54.184;18.680;2023-05-10T08:01:44;4.43;;;2.53;;
43457;SDS011;29046;54.184;18.680;2023-05-10T08:04:12;8.88;;;2.33;;
43457;SDS011;29046;54.184;18.680;2023-05-10T08:06:40;7.07;;;2.60;;
43457;SDS011;29046;54.184;18.680;2023-05-10T08:09:08;7.47;;;2.85;;
43457;SDS011;29046;54.184;18.680;2023-05-10T08:11:37;8.48;;;3.00;;
43457;SDS011;29046;54.184;18.680;2023-05-10T08:14:05;4.90;;;2.53;;
43457;SDS011;29046;54.184;18.680;2023-05-10T08:16:32;4.43;;;2.25;;
43457;SDS011;29046;54.184;18.680;2023-05-10T08:19:01;8.20;;;2.55;;
43457;SDS011;29046;54.184;18.680;2023-05-10T08:21:28;8.13;;;2.75;;
43457;SDS011;29046;54.184;18.680;2023-05-10T08:23:57;8.10;;;2.10;;
43457;SDS011;29046;54.184;18.680;2023-05-10T08:26:25;11.55;;;2.60;;
43457;SDS011;29046;54.184;18.680;2023-05-10T08:28:53;4.53;;;2.00;;
43457;SDS011;29046;54.184;18.680;2023-05-10T08:31:21;5.32;;;2.50;;
43457;SDS011;29046;54.184;18.680;2023-05-10T08:33:48;3.85;;;2.05;;
43457;SDS011;29046;54.184;18.680;2023-05-10T08:36:18;7.60;;;2.25;;
43457;SDS011;29046;54.184;18.680;2023-05-10T08:38:51;6.20;;;2.08;;
43457;SDS011;29046;54.184;18.680;2023-05-10T08:41:22;7.80;;;2.47;;
43457;SDS011;29046;54.184;18.680;2023-05-10T08:43:51;7.70;;;2.33;;
43457;SDS011;29046;54.184;18.680;2023-05-10T08:46:19;16.25;;;3.03;;
43457;SDS011;29046;54.184;18.680;2023-05-10T08:48:48;8.68;;;2.30;;
43457;SDS011;29046;54.184;18.680;2023-05-10T08:51:22;8.55;;;2.80;;
43457;SDS011;29046;54.184;18.680;2023-05-10T08:53:52;3.65;;;1.90;;
43457;SDS011;29046;54.184;18.680;2023-05-10T08:56:19;5.68;;;2.50;;
43457;SDS011;29046;54.184;18.680;2023-05-10T08:58:47;4.80;;;2.20;;
43457;SDS011;29046;54.184;18.680;2023-05-10T09:01:16;9.75;;;2.35;;
43457;SDS011;29046;54.184;18.680;2023-05-10T09:03:45;6.78;;;2.30;;
43457;SDS011;29046;54.184;18.680;2023-05-10T09:06:14;4.70;;;2.15;;
43457;SDS011;29046;54.184;18.680;2023-05-10T09:08:42;5.95;;;2.42;;
43457;SDS011;29046;54.184;18.680;2023-05-10T09:11:11;4.38;;;2.22;;
43457;SDS011;29046;54.184;18.680;2023-05-10T09:13:39;3.00;;;2.42;;
43457;SDS011;29046;54.184;18.680;2023-05-10T09:16:07;8.40;;;2.60;;
43457;SDS011;29046;54.184;18.680;2023-05-10T09:18:47;13.40;;;3.03;;
43457;SDS011;29046;54.184;18.680;2023-05-10T09:21:16;9.40;;;3.28;;
43457;SDS011;29046;54.184;18.680;2023-05-10T09:23:47;6.18;;;3.03;;
43457;SDS011;29046;54.184;18.680;2023-05-10T09:26:16;4.95;;;2.80;;
43457;SDS011;29046;54.184;18.680;2023-05-10T09:31:18;4.45;;;2.25;;
43457;SDS011;29046;54.184;18.680;2023-05-10T09:33:46;10.05;;;2.25;;
43457;SDS011;29046;54.184;18.680;2023-05-10T09:36:13;4.55;;;2.20;;
43457;SDS011;29046;54.184;18.680;2023-05-10T09:38:47;5.70;;;2.40;;
43457;SDS011;29046;54.184;18.680;2023-05-10T09:41:18;7.03;;;2.15;;
43457;SDS011;29046;54.184;18.680;2023-05-10T09:43:47;7.90;;;2.20;;
43457;SDS011;29046;54.184;18.680;2023-05-10T09:46:15;3.97;;;2.53;;
43457;SDS011;29046;54.184;18.680;2023-05-10T09:48:44;5.95;;;2.53;;
43457;SDS011;29046;54.184;18.680;2023-05-10T09:51:22;9.23;;;2.60;;
43457;SDS011;29046;54.184;18.680;2023-05-10T09:56:56;4.60;;;2.55;;
43457;SDS011;29046;54.184;18.680;2023-05-10T09:59:24;8.18;;;2.30;;
43457;SDS011;29046;54.184;18.680;2023-05-10T10:01:59;6.75;;;3.00;;
43457;SDS011;29046;54.184;18.680;2023-05-10T10:04:28;3.20;;;2.28;;
43457;SDS011;29046;54.184;18.680;2023-05-10T10:06:59;9.57;;;2.45;;
43457;SDS011;29046;54.184;18.680;2023-05-10T10:09:28;10.07;;;2.20;;
43457;SDS011;29046;54.184;18.680;2023-05-10T10:11:55;2.92;;;2.03;;
43457;SDS011;29046;54.184;18.680;2023-05-10T10:14:23;5.40;;;2.53;;
43457;SDS011;29046;54.184;18.680;2023-05-10T10:16:51;10.48;;;2.10;;
43457;SDS011;29046;54.184;18.680;2023-05-10T10:19:33;12.48;;;2.50;;
43457;SDS011;29046;54.184;18.680;2023-05-10T10:22:02;6.18;;;2.50;;
43457;SDS011;29046;54.184;18.680;2023-05-10T10:24:31;17.10;;;2.88;;
43457;SDS011;29046;54.184;18.680;2023-05-10T10:27:09;3.80;;;2.13;;
43457;SDS011;29046;54.184;18.680;2023-05-10T10:29:59;5.95;;;3.00;;
43457;SDS011;29046;54.184;18.680;2023-05-10T10:34:56;7.32;;;2.75;;
43457;SDS011;29046;54.184;18.680;2023-05-10T10:37:23;8.57;;;2.60;;
43457;SDS011;29046;54.184;18.680;2023-05-10T10:39:51;5.03;;;1.90;;
43457;SDS011;29046;54.184;18.680;2023-05-10T10:42:43;7.28;;;2.78;;
43457;SDS011;29046;54.184;18.680;2023-05-10T10:45:13;3.95;;;2.28;;
43457;SDS011;29046;54.184;18.680;2023-05-10T10:47:41;7.93;;;2.30;;
43457;SDS011;29046;54.184;18.680;2023-05-10T10:50:10;7.63;;;2.65;;
43457;SDS011;29046;54.184;18.680;2023-05-10T10:52:43;5.47;;;2.60;;
43457;SDS011;29046;54.184;18.680;2023-05-10T10:55:15;7.93;;;3.28;;
43457;SDS011;29046;54.184;18.680;2023-05-10T10:57:55;7.43;;;3.25;;
43457;SDS011;29046;54.184;18.680;2023-05-10T11:00:43;5.72;;;2.40;;
43457;SDS011;29046;54.184;18.680;2023-05-10T11:03:12;6.78;;;2.42;;
43457;SDS011;29046;54.184;18.680;2023-05-10T11:08:12;11.48;;;2.88;;
43457;SDS011;29046;54.184;18.680;2023-05-10T11:10:48;5.25;;;2.85;;
43457;SDS011;29046;54.184;18.680;2023-05-10T11:13:26;7.53;;;2.65;;
43457;SDS011;29046;54.184;18.680;2023-05-10T11:15:54;9.93;;;3.05;;
43457;SDS011;29046;54.184;18.680;2023-05-10T11:18:24;10.25;;;2.60;;
43457;SDS011;29046;54.184;18.680;2023-05-10T11:20:58;7.15;;;2.65;;
43457;SDS011;29046;54.184;18.680;2023-05-10T11:23:30;9.65;;;4.07;;
43457;SDS011;29046;54.184;18.680;2023-05-10T11:25:58;4.47;;;2.53;;
43457;SDS011;29046;54.184;18.680;2023-05-10T11:28:26;9.77;;;2.78;;
43457;SDS011;29046;54.184;18.680;2023-05-10T11:30:55;10.80;;;2.50;;
43457;SDS011;29046;54.184;18.680;2023-05-10T11:33:22;7.20;;;2.40;;
43457;SDS011;29046;54.184;18.680;2023-05-10T11:35:50;7.82;;;2.65;;
43457;SDS011;29046;54.184;18.680;2023-05-10T11:38:18;9.90;;;2.47;;
43457;SDS011;29046;54.184;18.680;2023-05-10T11:40:45;8.30;;;2.50;;
43457;SDS011;29046;54.184;18.680;2023-05-10T11:43:13;5.68;;;2.75;;
43457;SDS011;29046;54.184;18.680;2023-05-10T11:45:41;8.43;;;2.40;;
43457;SDS011;29046;54.184;18.680;2023-05-10T11:48:08;6.85;;;2.60;;
43457;SDS011;29046;54.184;18.680;2023-05-10T11:50:36;13.63;;;2.70;;
43457;SDS011;29046;54.184;18.680;2023-05-10T11:53:04;12.43;;;2.70;;
43457;SDS011;29046;54.184;18.680;2023-05-10T11:55:33;8.35;;;2.53;;
43457;SDS011;29046;54.184;18.680;2023-05-10T11:58:01;7.35;;;2.63;;
43457;SDS011;29046;54.184;18.680;2023-05-10T12:00:29;6.10;;;2.42;;
43457;SDS011;29046;54.184;18.680;2023-05-10T12:02:57;5.22;;;2.38;;
43457;SDS011;29046;54.184;18.680;2023-05-10T12:05:25;12.10;;;2.67;;
43457;SDS011;29046;54.184;18.680;2023-05-10T12:07:53;11.02;;;2.85;;
43457;SDS011;29046;54.184;18.680;2023-05-10T12:10:37;7.20;;;3.00;;
43457;SDS011;29046;54.184;18.680;2023-05-10T12:13:05;7.28;;;2.00;;
43457;SDS011;29046;54.184;18.680;2023-05-10T12:15:33;4.40;;;2.55;;
43457;SDS011;29046;54.184;18.680;2023-05-10T12:18:01;9.70;;;2.70;;
43457;SDS011;29046;54.184;18.680;2023-05-10T12:20:29;11.57;;;3.45;;
43457;SDS011;29046;54.184;18.680;2023-05-10T12:22:57;9.15;;;3.30;;
43457;SDS011;29046;54.184;18.680;2023-05-10T12:25:29;10.85;;;3.50;;
43457;SDS011;29046;54.184;18.680;2023-05-10T12:27:57;8.52;;;2.60;;
43457;SDS011;29046;54.184;18.680;2023-05-10T12:30:28;4.28;;;2.60;;
43457;SDS011;29046;54.184;18.680;2023-05-10T12:32:59;5.40;;;2.17;;
43457;SDS011;29046;54.184;18.680;2023-05-10T12:35:30;5.57;;;3.07;;
43457;SDS011;29046;54.184;18.680;2023-05-10T12:37:58;10.63;;;3.08;;
43457;SDS011;29046;54.184;18.680;2023-05-10T12:40:26;7.20;;;2.97;;
43457;SDS011;29046;54.184;18.680;2023-05-10T12:42:53;5.68;;;2.45;;
43457;SDS011;29046;54.184;18.680;2023-05-10T12:45:21;7.18;;;2.70;;
43457;SDS011;29046;54.184;18.680;2023-05-10T12:47:48;3.42;;;2.50;;
43457;SDS011;29046;54.184;18.680;2023-05-10T12:50:16;7.07;;;2.30;;
43457;SDS011;29046;54.184;18.680;2023-05-10T12:52:44;7.65;;;2.50;;
43457;SDS011;29046;54.184;18.680;2023-05-10T12:55:11;5.18;;;2.38;;
43457;SDS011;29046;54.184;18.680;2023-05-10T12:57:39;13.95;;;2.92;;
43457;SDS011;29046;54.184;18.680;2023-05-10T13:00:06;9.43;;;2.72;;
43457;SDS011;29046;54.184;18.680;2023-05-10T13:02:52;6.30;;;2.50;;
43457;SDS011;29046;54.184;18.680;2023-05-10T13:05:20;8.32;;;2.85;;
43457;SDS011;29046;54.184;18.680;2023-05-10T13:07:47;7.57;;;2.30;;
43457;SDS011;29046;54.184;18.680;2023-05-10T13:10:15;13.30;;;3.47;;
43457;SDS011;29046;54.184;18.680;2023-05-10T13:12:43;10.95;;;2.38;;
43457;SDS011;29046;54.184;18.680;2023-05-10T13:15:11;4.50;;;2.60;;
43457;SDS011;29046;54.184;18.680;2023-05-10T13:17:39;11.50;;;3.15;;
43457;SDS011;29046;54.184;18.680;2023-05-10T13:20:07;6.18;;;2.50;;
43457;SDS011;29046;54.184;18.680;2023-05-10T13:22:35;10.68;;;3.22;;
43457;SDS011;29046;54.184;18.680;2023-05-10T13:25:06;8.25;;;2.90;;
43457;SDS011;29046;54.184;18.680;2023-05-10T13:27:34;8.75;;;3.45;;
43457;SDS011;29046;54.184;18.680;2023-05-10T13:30:02;3.92;;;2.58;;
43457;SDS011;29046;54.184;18.680;2023-05-10T13:32:30;8.20;;;2.42;;
43457;SDS011;29046;54.184;18.680;2023-05-10T13:34:58;5.55;;;2.35;;
43457;SDS011;29046;54.184;18.680;2023-05-10T13:37:26;6.32;;;2.72;;
43457;SDS011;29046;54.184;18.680;2023-05-10T13:39:53;14.57;;;2.67;;
43457;SDS011;29046;54.184;18.680;2023-05-10T13:42:24;8.15;;;2.38;;
43457;SDS011;29046;54.184;18.680;2023-05-10T13:44:52;5.88;;;2.80;;
43457;SDS011;29046;54.184;18.680;2023-05-10T13:47:19;6.28;;;2.45;;
43457;SDS011;29046;54.184;18.680;2023-05-10T13:49:49;7.97;;;2.63;;
43457;SDS011;29046;54.184;18.680;2023-05-10T13:52:16;7.63;;;2.60;;
43457;SDS011;29046;54.184;18.680;2023-05-10T13:54:44;12.93;;;2.83;;
43457;SDS011;29046;54.184;18.680;2023-05-10T13:57:12;7.13;;;2.50;;
43457;SDS011;29046;54.184;18.680;2023-05-10T13:59:40;3.85;;;2.33;;
43457;SDS011;29046;54.184;18.680;2023-05-10T14:02:08;6.63;;;2.60;;
43457;SDS011;29046;54.184;18.680;2023-05-10T14:04:36;5.28;;;2.30;;
43457;SDS011;29046;54.184;18.680;2023-05-10T14:07:04;10.30;;;2.63;;
43457;SDS011;29046;54.184;18.680;2023-05-10T14:09:32;7.10;;;2.63;;
43457;SDS011;29046;54.184;18.680;2023-05-10T14:12:00;6.13;;;3.00;;
43457;SDS011;29046;54.184;18.680;2023-05-10T14:14:28;7.65;;;2.28;;
43457;SDS011;29046;54.184;18.680;2023-05-10T14:16:55;11.90;;;2.65;;
43457;SDS011;29046;54.184;18.680;2023-05-10T14:19:23;12.02;;;2.58;;
43457;SDS011;29046;54.184;18.680;2023-05-10T14:21:51;5.68;;;2.50;;
43457;SDS011;29046;54.184;18.680;2023-05-10T14:24:18;5.97;;;2.40;;
43457;SDS011;29046;54.184;18.680;2023-05-10T14:26:46;5.32;;;2.33;;
43457;SDS011;29046;54.184;18.680;2023-05-10T14:29:14;4.93;;;2.30;;
43457;SDS011;29046;54.184;18.680;2023-05-10T14:31:41;10.00;;;3.10;;
43457;SDS011;29046;54.184;18.680;2023-05-10T14:34:10;7.47;;;2.35;;
43457;SDS011;29046;54.184;18.680;2023-05-10T14:36:37;5.82;;;2.75;;
43457;SDS011;29046;54.184;18.680;2023-05-10T14:39:05;7.10;;;2.45;;
43457;SDS011;29046;54.184;18.680;2023-05-10T14:41:33;5.88;;;2.58;;
43457;SDS011;29046;54.184;18.680;2023-05-10T14:44:01;10.52;;;2.60;;
43457;SDS011;29046;54.184;18.680;2023-05-10T14:46:29;8.30;;;2.78;;
43457;SDS011;29046;54.184;18.680;2023-05-10T14:48:57;9.18;;;3.42;;
43457;SDS011;29046;54.184;18.680;2023-05-10T14:51:25;9.23;;;3.10;;
43457;SDS011;29046;54.184;18.680;2023-05-10T14:53:53;8.60;;;2.70;;
43457;SDS011;29046;54.184;18.680;2023-05-10T14:56:20;8.40;;;2.50;;
43457;SDS011;29046;54.184;18.680;2023-05-10T14:58:49;8.15;;;2.83;;
43457;SDS011;29046;54.184;18.680;2023-05-10T15:01:17;12.45;;;3.22;;
43457;SDS011;29046;54.184;18.680;2023-05-10T15:03:46;9.93;;;2.97;;
43457;SDS011;29046;54.184;18.680;2023-05-10T15:06:14;10.77;;;2.80;;
43457;SDS011;29046;54.184;18.680;2023-05-10T15:08:43;8.70;;;2.53;;
43457;SDS011;29046;54.184;18.680;2023-05-10T15:11:10;7.15;;;2.83;;
43457;SDS011;29046;54.184;18.680;2023-05-10T15:13:38;11.70;;;3.55;;